DAOI

Ech Cheliff Airport

Algeria
METAR DAOI 152000Z 23011KT 9999 FEW026CB SCT030 26/17 Q1016
Observed Flight Rules
Jul-15 @ 20:00 UTC (an hour ago) Visual Flight Rules
Wind Visibility Clouds
230° at 11 knots 10,000+ meters
  • Few at 2,600' AGL
  • Scattered at 3,000' AGL
Temperatures Readings
Current 26°C / 79°F
Dewpoint 17°C / 63°F
Humidity 58%
Altimeter 30" Hg
Pressure 1016 hPa
Elevation 143
METAR DAOI 152000Z 23011KT 9999 FEW026CB SCT030 26/17 Q1016
Observed Flight Rules
Jul-15 @ 20:00 UTC
(an hour ago)
VFR
Wind Visibility
230° at 11 knots 10,000+ meters
Clouds
  • Few at 2,600' AGL
  • Scattered at 3,000' AGL
Temperature Dewpoint
26°C / 79°F 17°C / 63°F
Humidity Altimeter Pressure
58% 30" Hg 1016 hPa